CJD4 weather

CLOSED Hamlin Airport
North Battleford, Saskatchewan, Canada

Public forecast

Using degrees Celsius for public forecast. Weather courtesy of forecast.io.

Closest aviation weather report (METAR) to Hamlin Airport

Closest report is North Battleford Airport, 6.8 nm (12.7 km) SSE. Retrieved 2019/10/14 14:00 UTC (9 minutes ago):

CYQW 141400Z AUTO 36007KT 9SM OVC055 01/M04 A2979 RMK SLP112

Closest aviation forecast (TAF) to Hamlin Airport

Closest forecast is North Battleford Airport, 6.8 nm (12.7 km) SSE. Retrieved 2019/10/14 12:45 UTC (1 hour ago):

TAF CYQW 141142Z 1412/1424 06005KT P6SM FEW050 OVC070 TEMPO 1412/1415 5SM -RASN BR BKN050 PROB30 1413/1415 5SM -FZRA BR FM141600 02008KT P6SM -RASN SCT020 OVC050 TEMPO 1417/1424 3SM -SHSN VV020 BECMG 1419/1421 34012KT RMK FCST BASED ON AUTO OBS NXT FCST BY 141800Z